Cranham, United Kingdom
Current Conditions -  °F | °C
As of 9:20 PM on Tuesday 21 Oct 2014 (Local Time) from EGLC Reporting Station
Few Clouds Few Clouds  
Wind Chill: 10°   Ceiling: Unl
Heat Index: 10°   Visibility: 6mi
Dew Point:   Wind: 20mph
Humidity: 62%   Direction: 300°WNW
Pressure: 30.03"   Gusts: NA
Location:  51.57°N, 0.27°E
Report Text: EGLC 212020Z 30017KT 9999 FEW035 10/03 Q1017
Loading
Personal Weather Stations






























Interactive Weather Map
Tropical Storm Tracking
New forecast layout! Learn more

10-Day Weather Forecast

Advertisements
Track Severe Weather on mobile